sensor_id;sensor_type;location;lat;lon;timestamp;temperature;humidity
45283;DHT22;31023;44.994;1.796;2023-03-14T00:00:49;10.10;99.90
45283;DHT22;31023;44.994;1.796;2023-03-14T00:03:15;10.10;99.90
45283;DHT22;31023;44.994;1.796;2023-03-14T00:05:41;10.00;99.90
45283;DHT22;31023;44.994;1.796;2023-03-14T00:08:06;10.10;99.90
45283;DHT22;31023;44.994;1.796;2023-03-14T00:10:32;10.10;99.90
45283;DHT22;31023;44.994;1.796;2023-03-14T00:12:57;10.10;99.90
45283;DHT22;31023;44.994;1.796;2023-03-14T00:15:23;10.10;99.90
45283;DHT22;31023;44.994;1.796;2023-03-14T00:17:49;10.10;99.90
45283;DHT22;31023;44.994;1.796;2023-03-14T00:20:14;10.20;99.90
45283;DHT22;31023;44.994;1.796;2023-03-14T00:22:41;10.30;99.90
45283;DHT22;31023;44.994;1.796;2023-03-14T00:25:08;10.30;99.90
45283;DHT22;31023;44.994;1.796;2023-03-14T00:27:34;10.20;99.90
45283;DHT22;31023;44.994;1.796;2023-03-14T00:30:00;10.20;99.90
45283;DHT22;31023;44.994;1.796;2023-03-14T00:32:26;10.20;99.90
45283;DHT22;31023;44.994;1.796;2023-03-14T00:34:52;10.20;99.90
45283;DHT22;31023;44.994;1.796;2023-03-14T00:37:17;10.30;99.90
45283;DHT22;31023;44.994;1.796;2023-03-14T00:39:43;10.30;99.90
45283;DHT22;31023;44.994;1.796;2023-03-14T00:42:09;10.10;99.90
45283;DHT22;31023;44.994;1.796;2023-03-14T00:44:34;10.30;99.90
45283;DHT22;31023;44.994;1.796;2023-03-14T00:47:00;10.20;99.90
45283;DHT22;31023;44.994;1.796;2023-03-14T00:49:26;10.20;99.90
45283;DHT22;31023;44.994;1.796;2023-03-14T00:51:52;10.10;99.90
45283;DHT22;31023;44.994;1.796;2023-03-14T00:54:21;10.20;99.90
45283;DHT22;31023;44.994;1.796;2023-03-14T00:56:47;10.30;99.90
45283;DHT22;31023;44.994;1.796;2023-03-14T00:59:13;10.40;99.90
45283;DHT22;31023;44.994;1.796;2023-03-14T01:01:39;10.30;99.90
45283;DHT22;31023;44.994;1.796;2023-03-14T01:04:05;10.30;99.90
45283;DHT22;31023;44.994;1.796;2023-03-14T01:06:31;10.20;99.90
45283;DHT22;31023;44.994;1.796;2023-03-14T01:08:57;10.30;99.90
45283;DHT22;31023;44.994;1.796;2023-03-14T01:11:29;10.10;99.90
45283;DHT22;31023;44.994;1.796;2023-03-14T01:13:55;10.10;99.90
45283;DHT22;31023;44.994;1.796;2023-03-14T01:16:23;10.10;99.90
45283;DHT22;31023;44.994;1.796;2023-03-14T01:18:49;10.00;99.90
45283;DHT22;31023;44.994;1.796;2023-03-14T01:21:20;9.90;99.90
45283;DHT22;31023;44.994;1.796;2023-03-14T01:23:46;9.80;99.90
45283;DHT22;31023;44.994;1.796;2023-03-14T01:26:15;9.80;99.90
45283;DHT22;31023;44.994;1.796;2023-03-14T01:28:41;9.80;99.90
45283;DHT22;31023;44.994;1.796;2023-03-14T01:31:08;9.60;99.90
45283;DHT22;31023;44.994;1.796;2023-03-14T01:33:35;9.60;99.90
45283;DHT22;31023;44.994;1.796;2023-03-14T01:36:01;9.50;99.90
45283;DHT22;31023;44.994;1.796;2023-03-14T01:38:29;9.50;99.90
45283;DHT22;31023;44.994;1.796;2023-03-14T01:40:55;9.40;99.90
45283;DHT22;31023;44.994;1.796;2023-03-14T01:43:21;9.50;99.90
45283;DHT22;31023;44.994;1.796;2023-03-14T01:46:25;9.40;99.90
45283;DHT22;31023;44.994;1.796;2023-03-14T01:54:13;9.10;99.90
45283;DHT22;31023;44.994;1.796;2023-03-14T01:56:42;9.00;99.90
45283;DHT22;31023;44.994;1.796;2023-03-14T01:59:10;8.90;99.90
45283;DHT22;31023;44.994;1.796;2023-03-14T02:01:36;8.80;99.90
45283;DHT22;31023;44.994;1.796;2023-03-14T02:04:05;9.00;99.90
45283;DHT22;31023;44.994;1.796;2023-03-14T02:06:43;8.90;99.90
45283;DHT22;31023;44.994;1.796;2023-03-14T02:09:10;8.80;99.90
45283;DHT22;31023;44.994;1.796;2023-03-14T02:11:35;9.00;99.90
45283;DHT22;31023;44.994;1.796;2023-03-14T02:14:02;9.10;99.90
45283;DHT22;31023;44.994;1.796;2023-03-14T02:16:27;8.90;99.90
45283;DHT22;31023;44.994;1.796;2023-03-14T02:18:53;8.90;99.90
45283;DHT22;31023;44.994;1.796;2023-03-14T02:22:15;8.90;99.90
45283;DHT22;31023;44.994;1.796;2023-03-14T02:29:39;9.10;99.90
45283;DHT22;31023;44.994;1.796;2023-03-14T02:32:06;8.80;99.90
45283;DHT22;31023;44.994;1.796;2023-03-14T02:34:33;8.90;99.90
45283;DHT22;31023;44.994;1.796;2023-03-14T02:37:00;8.90;99.90
45283;DHT22;31023;44.994;1.796;2023-03-14T02:39:39;8.90;99.90
45283;DHT22;31023;44.994;1.796;2023-03-14T02:42:05;8.80;99.90
45283;DHT22;31023;44.994;1.796;2023-03-14T02:44:31;8.90;99.90
45283;DHT22;31023;44.994;1.796;2023-03-14T02:46:57;8.80;99.90
45283;DHT22;31023;44.994;1.796;2023-03-14T02:49:23;8.80;99.90
45283;DHT22;31023;44.994;1.796;2023-03-14T02:51:50;8.80;99.90
45283;DHT22;31023;44.994;1.796;2023-03-14T02:54:15;9.00;99.90
45283;DHT22;31023;44.994;1.796;2023-03-14T02:56:41;8.90;99.90
45283;DHT22;31023;44.994;1.796;2023-03-14T02:59:07;8.90;99.90
45283;DHT22;31023;44.994;1.796;2023-03-14T03:01:34;8.80;99.90
45283;DHT22;31023;44.994;1.796;2023-03-14T03:03:59;8.60;99.90
45283;DHT22;31023;44.994;1.796;2023-03-14T03:06:25;8.70;99.90
45283;DHT22;31023;44.994;1.796;2023-03-14T03:08:51;8.70;99.90
45283;DHT22;31023;44.994;1.796;2023-03-14T03:11:17;8.80;99.90
45283;DHT22;31023;44.994;1.796;2023-03-14T03:13:43;8.70;99.90
45283;DHT22;31023;44.994;1.796;2023-03-14T03:16:09;8.70;99.90
45283;DHT22;31023;44.994;1.796;2023-03-14T03:18:34;8.70;99.90
45283;DHT22;31023;44.994;1.796;2023-03-14T03:21:04;8.80;99.90
45283;DHT22;31023;44.994;1.796;2023-03-14T03:23:30;8.70;99.90
45283;DHT22;31023;44.994;1.796;2023-03-14T03:25:56;8.70;99.90
45283;DHT22;31023;44.994;1.796;2023-03-14T03:28:21;8.80;99.90
45283;DHT22;31023;44.994;1.796;2023-03-14T03:30:47;8.80;99.90
45283;DHT22;31023;44.994;1.796;2023-03-14T03:33:13;8.70;99.90
45283;DHT22;31023;44.994;1.796;2023-03-14T03:35:46;8.70;99.90
45283;DHT22;31023;44.994;1.796;2023-03-14T03:38:13;8.70;99.90
45283;DHT22;31023;44.994;1.796;2023-03-14T03:40:38;8.70;99.90
45283;DHT22;31023;44.994;1.796;2023-03-14T03:43:04;8.80;99.90
45283;DHT22;31023;44.994;1.796;2023-03-14T03:45:30;8.80;99.90
45283;DHT22;31023;44.994;1.796;2023-03-14T03:47:56;8.90;99.90
45283;DHT22;31023;44.994;1.796;2023-03-14T03:50:22;8.90;99.90
45283;DHT22;31023;44.994;1.796;2023-03-14T03:52:47;8.90;99.90
45283;DHT22;31023;44.994;1.796;2023-03-14T03:55:13;8.90;99.90
45283;DHT22;31023;44.994;1.796;2023-03-14T03:57:39;8.80;99.90
45283;DHT22;31023;44.994;1.796;2023-03-14T04:00:05;8.90;99.90
45283;DHT22;31023;44.994;1.796;2023-03-14T04:02:32;8.90;99.90
45283;DHT22;31023;44.994;1.796;2023-03-14T04:04:58;8.90;99.90
45283;DHT22;31023;44.994;1.796;2023-03-14T04:07:24;8.80;99.90
45283;DHT22;31023;44.994;1.796;2023-03-14T04:09:49;8.80;99.90
45283;DHT22;31023;44.994;1.796;2023-03-14T04:12:15;8.70;99.90
45283;DHT22;31023;44.994;1.796;2023-03-14T04:14:41;8.70;99.90
45283;DHT22;31023;44.994;1.796;2023-03-14T04:17:07;8.70;99.90
45283;DHT22;31023;44.994;1.796;2023-03-14T04:19:33;8.60;99.90
45283;DHT22;31023;44.994;1.796;2023-03-14T04:21:58;8.60;99.90
45283;DHT22;31023;44.994;1.796;2023-03-14T04:24:24;8.60;99.90
45283;DHT22;31023;44.994;1.796;2023-03-14T04:26:50;8.50;99.90
45283;DHT22;31023;44.994;1.796;2023-03-14T04:29:16;8.50;99.90
45283;DHT22;31023;44.994;1.796;2023-03-14T04:31:41;8.40;99.90
45283;DHT22;31023;44.994;1.796;2023-03-14T04:34:07;8.40;99.90
45283;DHT22;31023;44.994;1.796;2023-03-14T04:36:33;8.40;99.90
45283;DHT22;31023;44.994;1.796;2023-03-14T04:38:58;8.40;99.90
45283;DHT22;31023;44.994;1.796;2023-03-14T04:41:24;8.50;99.90
45283;DHT22;31023;44.994;1.796;2023-03-14T04:43:50;8.50;99.90
45283;DHT22;31023;44.994;1.796;2023-03-14T04:46:15;8.60;99.90
45283;DHT22;31023;44.994;1.796;2023-03-14T04:48:41;8.60;99.90
45283;DHT22;31023;44.994;1.796;2023-03-14T04:51:07;8.70;99.90
45283;DHT22;31023;44.994;1.796;2023-03-14T04:53:33;8.70;99.90
45283;DHT22;31023;44.994;1.796;2023-03-14T04:56:00;8.70;99.90
45283;DHT22;31023;44.994;1.796;2023-03-14T04:58:25;8.70;99.90
45283;DHT22;31023;44.994;1.796;2023-03-14T05:00:51;8.70;99.90
45283;DHT22;31023;44.994;1.796;2023-03-14T05:03:18;8.70;99.90
45283;DHT22;31023;44.994;1.796;2023-03-14T05:05:44;8.70;99.90
45283;DHT22;31023;44.994;1.796;2023-03-14T05:08:10;8.80;99.90
45283;DHT22;31023;44.994;1.796;2023-03-14T05:10:36;8.80;99.90
45283;DHT22;31023;44.994;1.796;2023-03-14T05:13:02;8.80;99.90
45283;DHT22;31023;44.994;1.796;2023-03-14T05:15:28;8.80;99.90
45283;DHT22;31023;44.994;1.796;2023-03-14T05:17:53;8.80;99.90
45283;DHT22;31023;44.994;1.796;2023-03-14T05:20:22;8.90;99.90
45283;DHT22;31023;44.994;1.796;2023-03-14T05:22:48;8.90;99.90
45283;DHT22;31023;44.994;1.796;2023-03-14T05:25:13;8.90;99.90
45283;DHT22;31023;44.994;1.796;2023-03-14T05:27:39;8.80;99.90
45283;DHT22;31023;44.994;1.796;2023-03-14T05:30:05;8.70;99.90
45283;DHT22;31023;44.994;1.796;2023-03-14T05:32:32;8.60;99.90
45283;DHT22;31023;44.994;1.796;2023-03-14T05:34:57;8.40;99.90
45283;DHT22;31023;44.994;1.796;2023-03-14T05:37:28;8.30;99.90
45283;DHT22;31023;44.994;1.796;2023-03-14T05:39:54;8.20;99.90
45283;DHT22;31023;44.994;1.796;2023-03-14T05:42:19;8.10;99.90
45283;DHT22;31023;44.994;1.796;2023-03-14T05:44:45;8.00;99.90
45283;DHT22;31023;44.994;1.796;2023-03-14T05:47:11;7.90;99.90
45283;DHT22;31023;44.994;1.796;2023-03-14T05:49:36;7.80;99.90
45283;DHT22;31023;44.994;1.796;2023-03-14T05:52:02;7.70;99.90
45283;DHT22;31023;44.994;1.796;2023-03-14T05:54:28;7.70;99.90
45283;DHT22;31023;44.994;1.796;2023-03-14T05:56:53;7.60;99.90
45283;DHT22;31023;44.994;1.796;2023-03-14T05:59:19;7.60;99.90
45283;DHT22;31023;44.994;1.796;2023-03-14T06:01:45;7.60;99.90
45283;DHT22;31023;44.994;1.796;2023-03-14T06:04:10;7.60;99.90
45283;DHT22;31023;44.994;1.796;2023-03-14T06:06:36;7.60;99.90
45283;DHT22;31023;44.994;1.796;2023-03-14T06:09:02;7.60;99.90
45283;DHT22;31023;44.994;1.796;2023-03-14T06:11:28;7.50;99.90
45283;DHT22;31023;44.994;1.796;2023-03-14T06:13:53;7.50;99.90
45283;DHT22;31023;44.994;1.796;2023-03-14T06:16:19;7.60;99.90
45283;DHT22;31023;44.994;1.796;2023-03-14T06:18:45;7.80;99.90
45283;DHT22;31023;44.994;1.796;2023-03-14T06:21:12;7.90;99.90
45283;DHT22;31023;44.994;1.796;2023-03-14T06:23:37;7.80;99.90
45283;DHT22;31023;44.994;1.796;2023-03-14T06:26:04;7.90;99.90
45283;DHT22;31023;44.994;1.796;2023-03-14T06:28:30;8.00;99.90
45283;DHT22;31023;44.994;1.796;2023-03-14T06:30:55;8.00;99.90
45283;DHT22;31023;44.994;1.796;2023-03-14T06:33:21;8.10;99.90
45283;DHT22;31023;44.994;1.796;2023-03-14T06:35:47;8.00;99.90
45283;DHT22;31023;44.994;1.796;2023-03-14T06:38:12;7.90;99.90
45283;DHT22;31023;44.994;1.796;2023-03-14T06:40:38;7.90;99.90
45283;DHT22;31023;44.994;1.796;2023-03-14T06:43:04;7.80;99.90
45283;DHT22;31023;44.994;1.796;2023-03-14T06:45:29;7.80;99.90
45283;DHT22;31023;44.994;1.796;2023-03-14T06:47:55;7.80;99.90
45283;DHT22;31023;44.994;1.796;2023-03-14T06:50:21;7.70;99.90
45283;DHT22;31023;44.994;1.796;2023-03-14T06:52:48;7.80;99.90
45283;DHT22;31023;44.994;1.796;2023-03-14T06:55:15;7.80;99.90
45283;DHT22;31023;44.994;1.796;2023-03-14T06:57:41;8.10;99.90
45283;DHT22;31023;44.994;1.796;2023-03-14T07:00:07;8.10;99.90
45283;DHT22;31023;44.994;1.796;2023-03-14T07:02:33;8.20;99.90
45283;DHT22;31023;44.994;1.796;2023-03-14T07:04:59;8.10;99.90
45283;DHT22;31023;44.994;1.796;2023-03-14T07:07:26;8.20;99.90
45283;DHT22;31023;44.994;1.796;2023-03-14T07:09:52;8.20;99.90
45283;DHT22;31023;44.994;1.796;2023-03-14T07:12:17;8.40;99.90
45283;DHT22;31023;44.994;1.796;2023-03-14T07:14:43;8.30;99.90
45283;DHT22;31023;44.994;1.796;2023-03-14T07:17:09;8.30;99.90
45283;DHT22;31023;44.994;1.796;2023-03-14T07:19:34;8.30;99.90
45283;DHT22;31023;44.994;1.796;2023-03-14T07:22:00;8.30;99.90
45283;DHT22;31023;44.994;1.796;2023-03-14T07:24:26;8.30;99.90
45283;DHT22;31023;44.994;1.796;2023-03-14T07:26:52;9.20;99.90
45283;DHT22;31023;44.994;1.796;2023-03-14T07:29:18;10.00;99.90
45283;DHT22;31023;44.994;1.796;2023-03-14T07:31:43;8.90;99.90
45283;DHT22;31023;44.994;1.796;2023-03-14T07:34:09;10.10;99.90
45283;DHT22;31023;44.994;1.796;2023-03-14T07:36:35;11.20;99.90
45283;DHT22;31023;44.994;1.796;2023-03-14T07:39:01;11.90;99.90
45283;DHT22;31023;44.994;1.796;2023-03-14T07:41:26;10.50;99.90
45283;DHT22;31023;44.994;1.796;2023-03-14T07:43:52;9.90;99.90
45283;DHT22;31023;44.994;1.796;2023-03-14T07:46:18;9.50;99.90
45283;DHT22;31023;44.994;1.796;2023-03-14T07:48:44;9.60;99.90
45283;DHT22;31023;44.994;1.796;2023-03-14T07:51:09;9.50;99.90
45283;DHT22;31023;44.994;1.796;2023-03-14T07:53:35;9.40;99.90
45283;DHT22;31023;44.994;1.796;2023-03-14T07:56:00;9.30;99.90
45283;DHT22;31023;44.994;1.796;2023-03-14T07:58:26;9.10;99.90
45283;DHT22;31023;44.994;1.796;2023-03-14T08:00:52;9.00;99.90
45283;DHT22;31023;44.994;1.796;2023-03-14T08:03:18;8.80;99.90
45283;DHT22;31023;44.994;1.796;2023-03-14T08:05:47;8.70;99.90
45283;DHT22;31023;44.994;1.796;2023-03-14T08:08:13;8.90;99.90
45283;DHT22;31023;44.994;1.796;2023-03-14T08:10:39;8.70;99.90
45283;DHT22;31023;44.994;1.796;2023-03-14T08:13:04;8.70;99.90
45283;DHT22;31023;44.994;1.796;2023-03-14T08:15:30;8.70;99.90
45283;DHT22;31023;44.994;1.796;2023-03-14T08:17:56;8.70;99.90
45283;DHT22;31023;44.994;1.796;2023-03-14T08:20:24;8.70;99.90
45283;DHT22;31023;44.994;1.796;2023-03-14T08:22:50;8.70;99.90
45283;DHT22;31023;44.994;1.796;2023-03-14T08:25:16;8.80;99.90
45283;DHT22;31023;44.994;1.796;2023-03-14T08:27:42;8.70;99.90
45283;DHT22;31023;44.994;1.796;2023-03-14T08:30:13;8.60;99.90
45283;DHT22;31023;44.994;1.796;2023-03-14T08:32:39;8.50;99.90
45283;DHT22;31023;44.994;1.796;2023-03-14T08:35:05;8.60;99.90
45283;DHT22;31023;44.994;1.796;2023-03-14T08:37:32;8.50;99.90
45283;DHT22;31023;44.994;1.796;2023-03-14T08:39:58;8.80;99.90
45283;DHT22;31023;44.994;1.796;2023-03-14T08:42:24;8.90;99.90
45283;DHT22;31023;44.994;1.796;2023-03-14T08:44:51;8.80;99.90
45283;DHT22;31023;44.994;1.796;2023-03-14T08:47:16;8.80;99.90
45283;DHT22;31023;44.994;1.796;2023-03-14T08:49:42;10.90;99.90
45283;DHT22;31023;44.994;1.796;2023-03-14T08:52:08;10.40;99.90
45283;DHT22;31023;44.994;1.796;2023-03-14T08:54:34;11.90;99.90
45283;DHT22;31023;44.994;1.796;2023-03-14T08:56:59;12.80;99.90
45283;DHT22;31023;44.994;1.796;2023-03-14T08:59:25;12.10;99.90
45283;DHT22;31023;44.994;1.796;2023-03-14T09:01:51;13.00;99.90
45283;DHT22;31023;44.994;1.796;2023-03-14T09:04:16;14.00;99.90
45283;DHT22;31023;44.994;1.796;2023-03-14T09:06:42;13.90;99.90
45283;DHT22;31023;44.994;1.796;2023-03-14T09:09:08;12.60;99.90
45283;DHT22;31023;44.994;1.796;2023-03-14T09:11:34;11.00;99.90
45283;DHT22;31023;44.994;1.796;2023-03-14T09:14:00;10.40;99.90
45283;DHT22;31023;44.994;1.796;2023-03-14T09:16:25;10.00;99.90
45283;DHT22;31023;44.994;1.796;2023-03-14T09:18:51;10.00;99.90
45283;DHT22;31023;44.994;1.796;2023-03-14T09:21:20;10.00;99.90
45283;DHT22;31023;44.994;1.796;2023-03-14T09:23:46;10.40;99.90
45283;DHT22;31023;44.994;1.796;2023-03-14T09:26:12;9.70;99.90
45283;DHT22;31023;44.994;1.796;2023-03-14T09:28:37;10.50;99.90
45283;DHT22;31023;44.994;1.796;2023-03-14T09:31:10;13.80;99.90
45283;DHT22;31023;44.994;1.796;2023-03-14T09:33:37;15.20;99.90
45283;DHT22;31023;44.994;1.796;2023-03-14T09:36:03;12.50;99.90
45283;DHT22;31023;44.994;1.796;2023-03-14T09:38:28;12.30;99.90
45283;DHT22;31023;44.994;1.796;2023-03-14T09:40:55;11.80;99.90
45283;DHT22;31023;44.994;1.796;2023-03-14T09:43:24;13.00;99.90
45283;DHT22;31023;44.994;1.796;2023-03-14T09:45:50;13.30;99.90
45283;DHT22;31023;44.994;1.796;2023-03-14T09:48:24;13.00;99.90
45283;DHT22;31023;44.994;1.796;2023-03-14T09:50:56;12.00;99.90
45283;DHT22;31023;44.994;1.796;2023-03-14T09:53:27;11.30;99.90
45283;DHT22;31023;44.994;1.796;2023-03-14T09:55:54;11.10;99.90
45283;DHT22;31023;44.994;1.796;2023-03-14T09:58:23;10.80;99.90
45283;DHT22;31023;44.994;1.796;2023-03-14T10:00:52;10.90;99.90
45283;DHT22;31023;44.994;1.796;2023-03-14T10:03:34;11.30;99.90
45283;DHT22;31023;44.994;1.796;2023-03-14T10:06:01;11.20;99.90
45283;DHT22;31023;44.994;1.796;2023-03-14T10:08:27;11.00;99.90
45283;DHT22;31023;44.994;1.796;2023-03-14T10:10:54;11.40;99.90
45283;DHT22;31023;44.994;1.796;2023-03-14T10:13:22;11.10;99.90
45283;DHT22;31023;44.994;1.796;2023-03-14T10:16:00;10.60;99.90
45283;DHT22;31023;44.994;1.796;2023-03-14T10:18:29;10.50;99.90
45283;DHT22;31023;44.994;1.796;2023-03-14T10:21:28;10.90;99.90
45283;DHT22;31023;44.994;1.796;2023-03-14T10:23:54;11.00;99.90
45283;DHT22;31023;44.994;1.796;2023-03-14T10:26:29;11.10;99.90
45283;DHT22;31023;44.994;1.796;2023-03-14T10:29:12;11.50;99.90
45283;DHT22;31023;44.994;1.796;2023-03-14T10:32:02;11.20;99.90
45283;DHT22;31023;44.994;1.796;2023-03-14T10:34:37;10.50;99.90
45283;DHT22;31023;44.994;1.796;2023-03-14T10:37:23;10.30;99.90
45283;DHT22;31023;44.994;1.796;2023-03-14T10:39:53;10.60;99.90
45283;DHT22;31023;44.994;1.796;2023-03-14T10:42:28;11.20;99.90
45283;DHT22;31023;44.994;1.796;2023-03-14T10:44:57;12.30;99.90
45283;DHT22;31023;44.994;1.796;2023-03-14T10:47:26;11.70;99.90
45283;DHT22;31023;44.994;1.796;2023-03-14T10:49:54;11.30;99.90
45283;DHT22;31023;44.994;1.796;2023-03-14T10:52:25;11.20;99.90
45283;DHT22;31023;44.994;1.796;2023-03-14T10:54:57;10.90;99.90
45283;DHT22;31023;44.994;1.796;2023-03-14T10:57:24;11.30;99.90
45283;DHT22;31023;44.994;1.796;2023-03-14T10:59:51;12.00;99.90
45283;DHT22;31023;44.994;1.796;2023-03-14T11:05:31;12.90;99.90
45283;DHT22;31023;44.994;1.796;2023-03-14T11:08:04;12.00;99.90
45283;DHT22;31023;44.994;1.796;2023-03-14T11:10:35;11.90;99.90
45283;DHT22;31023;44.994;1.796;2023-03-14T11:15:41;12.00;99.90
45283;DHT22;31023;44.994;1.796;2023-03-14T11:23:17;12.60;99.90
45283;DHT22;31023;44.994;1.796;2023-03-14T11:25:56;12.30;99.90
45283;DHT22;31023;44.994;1.796;2023-03-14T11:31:23;12.00;99.90
45283;DHT22;31023;44.994;1.796;2023-03-14T11:36:22;12.30;99.90
45283;DHT22;31023;44.994;1.796;2023-03-14T11:38:59;12.40;99.90
45283;DHT22;31023;44.994;1.796;2023-03-14T11:43:56;11.60;99.90
45283;DHT22;31023;44.994;1.796;2023-03-14T11:46:36;11.20;99.90
45283;DHT22;31023;44.994;1.796;2023-03-14T11:51:43;10.80;99.90
45283;DHT22;31023;44.994;1.796;2023-03-14T11:54:39;10.70;99.90
45283;DHT22;31023;44.994;1.796;2023-03-14T11:57:16;10.70;99.90
45283;DHT22;31023;44.994;1.796;2023-03-14T11:59:47;10.50;99.90
45283;DHT22;31023;44.994;1.796;2023-03-14T12:02:35;10.70;99.90
45283;DHT22;31023;44.994;1.796;2023-03-14T12:05:31;11.00;99.90
45283;DHT22;31023;44.994;1.796;2023-03-14T12:10:40;11.30;99.90
45283;DHT22;31023;44.994;1.796;2023-03-14T12:13:13;11.50;99.90
45283;DHT22;31023;44.994;1.796;2023-03-14T12:15:41;11.50;99.90
45283;DHT22;31023;44.994;1.796;2023-03-14T12:18:35;11.90;99.90
45283;DHT22;31023;44.994;1.796;2023-03-14T12:21:07;12.20;99.90
45283;DHT22;31023;44.994;1.796;2023-03-14T12:23:49;12.20;99.90
45283;DHT22;31023;44.994;1.796;2023-03-14T12:26:19;12.10;99.90
45283;DHT22;31023;44.994;1.796;2023-03-14T12:28:50;12.20;99.90
45283;DHT22;31023;44.994;1.796;2023-03-14T12:39:50;11.00;99.90
45283;DHT22;31023;44.994;1.796;2023-03-14T12:45:31;11.20;99.90
45283;DHT22;31023;44.994;1.796;2023-03-14T12:48:15;11.10;99.90
45283;DHT22;31023;44.994;1.796;2023-03-14T12:51:00;11.10;99.90
45283;DHT22;31023;44.994;1.796;2023-03-14T12:59:21;11.60;99.90
45283;DHT22;31023;44.994;1.796;2023-03-14T13:04:35;11.80;99.90
45283;DHT22;31023;44.994;1.796;2023-03-14T13:07:03;12.00;99.90
45283;DHT22;31023;44.994;1.796;2023-03-14T13:11:59;12.50;99.90
45283;DHT22;31023;44.994;1.796;2023-03-14T13:14:28;12.50;99.90
45283;DHT22;31023;44.994;1.796;2023-03-14T13:16:54;12.00;99.90
45283;DHT22;31023;44.994;1.796;2023-03-14T13:19:26;11.80;99.90
45283;DHT22;31023;44.994;1.796;2023-03-14T13:22:01;11.60;99.90
45283;DHT22;31023;44.994;1.796;2023-03-14T13:24:28;11.70;99.90
45283;DHT22;31023;44.994;1.796;2023-03-14T13:26:55;11.70;99.90
45283;DHT22;31023;44.994;1.796;2023-03-14T13:29:23;11.80;99.90
45283;DHT22;31023;44.994;1.796;2023-03-14T13:31:54;11.90;99.90
45283;DHT22;31023;44.994;1.796;2023-03-14T13:34:25;11.90;99.90
45283;DHT22;31023;44.994;1.796;2023-03-14T13:36:53;12.00;99.90
45283;DHT22;31023;44.994;1.796;2023-03-14T13:39:21;11.90;99.70
45283;DHT22;31023;44.994;1.796;2023-03-14T13:41:50;11.80;99.90
45283;DHT22;31023;44.994;1.796;2023-03-14T13:44:35;11.70;99.90
45283;DHT22;31023;44.994;1.796;2023-03-14T13:47:03;11.40;99.90
45283;DHT22;31023;44.994;1.796;2023-03-14T13:49:31;11.40;99.90
45283;DHT22;31023;44.994;1.796;2023-03-14T13:52:01;11.50;99.90
45283;DHT22;31023;44.994;1.796;2023-03-14T13:54:27;11.20;99.90
45283;DHT22;31023;44.994;1.796;2023-03-14T13:57:04;11.50;99.90
45283;DHT22;31023;44.994;1.796;2023-03-14T13:59:34;11.90;99.40
45283;DHT22;31023;44.994;1.796;2023-03-14T14:02:04;12.10;99.90
45283;DHT22;31023;44.994;1.796;2023-03-14T14:04:36;12.00;99.80
45283;DHT22;31023;44.994;1.796;2023-03-14T14:07:08;12.00;99.60
45283;DHT22;31023;44.994;1.796;2023-03-14T14:09:43;12.00;99.40
45283;DHT22;31023;44.994;1.796;2023-03-14T14:12:16;11.40;99.90
45283;DHT22;31023;44.994;1.796;2023-03-14T14:17:11;11.30;99.90
45283;DHT22;31023;44.994;1.796;2023-03-14T14:19:39;11.10;99.90
45283;DHT22;31023;44.994;1.796;2023-03-14T14:22:05;11.00;99.90
45283;DHT22;31023;44.994;1.796;2023-03-14T14:24:32;11.10;99.90
45283;DHT22;31023;44.994;1.796;2023-03-14T14:27:01;11.20;99.90
45283;DHT22;31023;44.994;1.796;2023-03-14T14:29:28;11.20;99.90
45283;DHT22;31023;44.994;1.796;2023-03-14T14:32:01;11.20;99.90
45283;DHT22;31023;44.994;1.796;2023-03-14T14:34:27;11.00;99.90
45283;DHT22;31023;44.994;1.796;2023-03-14T14:36:53;11.20;99.90
45283;DHT22;31023;44.994;1.796;2023-03-14T14:39:26;11.20;99.90
45283;DHT22;31023;44.994;1.796;2023-03-14T14:41:54;11.00;99.90
45283;DHT22;31023;44.994;1.796;2023-03-14T14:44:33;11.20;99.90
45283;DHT22;31023;44.994;1.796;2023-03-14T14:47:02;11.50;99.90
45283;DHT22;31023;44.994;1.796;2023-03-14T14:49:33;11.80;99.90
45283;DHT22;31023;44.994;1.796;2023-03-14T14:52:13;11.90;99.90
45283;DHT22;31023;44.994;1.796;2023-03-14T14:54:44;12.00;99.40
45283;DHT22;31023;44.994;1.796;2023-03-14T14:57:28;11.80;99.80
45283;DHT22;31023;44.994;1.796;2023-03-14T15:00:08;11.60;98.10
45283;DHT22;31023;44.994;1.796;2023-03-14T15:02:38;11.40;98.60
45283;DHT22;31023;44.994;1.796;2023-03-14T15:05:20;11.30;99.90
45283;DHT22;31023;44.994;1.796;2023-03-14T15:07:46;11.00;99.90
45283;DHT22;31023;44.994;1.796;2023-03-14T15:10:18;10.10;99.90
45283;DHT22;31023;44.994;1.796;2023-03-14T15:12:44;10.00;99.90
45283;DHT22;31023;44.994;1.796;2023-03-14T15:15:11;10.00;99.90
45283;DHT22;31023;44.994;1.796;2023-03-14T15:17:37;9.90;99.90
45283;DHT22;31023;44.994;1.796;2023-03-14T15:20:04;9.80;99.90
45283;DHT22;31023;44.994;1.796;2023-03-14T15:22:30;9.90;99.90
45283;DHT22;31023;44.994;1.796;2023-03-14T15:24:56;10.10;99.90
45283;DHT22;31023;44.994;1.796;2023-03-14T15:27:22;10.30;99.90
45283;DHT22;31023;44.994;1.796;2023-03-14T15:29:48;10.30;99.90
45283;DHT22;31023;44.994;1.796;2023-03-14T15:32:15;10.40;99.90
45283;DHT22;31023;44.994;1.796;2023-03-14T15:34:42;10.50;99.90
45283;DHT22;31023;44.994;1.796;2023-03-14T15:37:12;10.30;99.90
45283;DHT22;31023;44.994;1.796;2023-03-14T15:39:39;10.00;99.90
45283;DHT22;31023;44.994;1.796;2023-03-14T15:42:05;10.20;99.90
45283;DHT22;31023;44.994;1.796;2023-03-14T15:44:30;9.70;99.90
45283;DHT22;31023;44.994;1.796;2023-03-14T15:46:56;9.30;99.90
45283;DHT22;31023;44.994;1.796;2023-03-14T15:49:22;9.40;99.90
45283;DHT22;31023;44.994;1.796;2023-03-14T15:51:47;9.40;99.90
45283;DHT22;31023;44.994;1.796;2023-03-14T15:54:14;9.50;99.90
45283;DHT22;31023;44.994;1.796;2023-03-14T15:56:40;9.70;99.90
45283;DHT22;31023;44.994;1.796;2023-03-14T15:59:05;9.70;99.90
45283;DHT22;31023;44.994;1.796;2023-03-14T16:01:31;9.60;99.90
45283;DHT22;31023;44.994;1.796;2023-03-14T16:03:57;9.80;99.90
45283;DHT22;31023;44.994;1.796;2023-03-14T16:06:23;9.70;99.90
45283;DHT22;31023;44.994;1.796;2023-03-14T16:08:48;9.60;99.90
45283;DHT22;31023;44.994;1.796;2023-03-14T16:11:15;9.80;99.90
45283;DHT22;31023;44.994;1.796;2023-03-14T16:13:43;9.90;99.90
45283;DHT22;31023;44.994;1.796;2023-03-14T16:16:09;10.10;99.90
45283;DHT22;31023;44.994;1.796;2023-03-14T16:18:36;10.00;99.90
45283;DHT22;31023;44.994;1.796;2023-03-14T16:21:09;9.90;99.90
45283;DHT22;31023;44.994;1.796;2023-03-14T16:23:36;9.90;99.90
45283;DHT22;31023;44.994;1.796;2023-03-14T16:26:09;9.80;99.90
45283;DHT22;31023;44.994;1.796;2023-03-14T16:28:36;10.00;99.90
45283;DHT22;31023;44.994;1.796;2023-03-14T16:31:04;10.10;99.90
45283;DHT22;31023;44.994;1.796;2023-03-14T16:33:33;10.30;99.90
45283;DHT22;31023;44.994;1.796;2023-03-14T16:36:01;10.30;99.90
45283;DHT22;31023;44.994;1.796;2023-03-14T16:38:30;10.30;99.90
45283;DHT22;31023;44.994;1.796;2023-03-14T16:40:58;10.50;99.90
45283;DHT22;31023;44.994;1.796;2023-03-14T16:43:24;10.30;99.90